sensor_id;sensor_type;location;lat;lon;timestamp;pressure;altitude;pressure_sealevel;temperature;humidity
67434;BME280;54305;47.950;6.572;2022-07-03T00:01:29;94670.69;;;14.68;68.93
67434;BME280;54305;47.950;6.572;2022-07-03T00:03:54;94674.66;;;14.64;69.56
67434;BME280;54305;47.950;6.572;2022-07-03T00:06:20;94677.22;;;14.72;68.95
67434;BME280;54305;47.950;6.572;2022-07-03T00:08:46;94669.41;;;14.64;69.05
67434;BME280;54305;47.950;6.572;2022-07-03T00:11:12;94678.16;;;14.56;70.79
67434;BME280;54305;47.950;6.572;2022-07-03T00:13:38;94663.59;;;14.54;69.72
67434;BME280;54305;47.950;6.572;2022-07-03T00:16:04;94670.75;;;14.60;69.62
67434;BME280;54305;47.950;6.572;2022-07-03T00:18:29;94679.53;;;14.67;69.01
67434;BME280;54305;47.950;6.572;2022-07-03T00:21:00;94681.69;;;14.63;68.38
67434;BME280;54305;47.950;6.572;2022-07-03T00:23:29;94677.16;;;14.57;68.69
67434;BME280;54305;47.950;6.572;2022-07-03T00:25:55;94668.56;;;14.49;68.73
67434;BME280;54305;47.950;6.572;2022-07-03T00:28:24;94671.97;;;14.49;68.85
67434;BME280;54305;47.950;6.572;2022-07-03T00:30:52;94669.25;;;14.43;68.87
67434;BME280;54305;47.950;6.572;2022-07-03T00:33:22;94671.41;;;14.39;70.08
67434;BME280;54305;47.950;6.572;2022-07-03T00:35:51;94667.69;;;14.34;70.67
67434;BME280;54305;47.950;6.572;2022-07-03T00:38:20;94658.66;;;14.36;71.02
67434;BME280;54305;47.950;6.572;2022-07-03T00:40:46;94663.75;;;14.38;70.20
67434;BME280;54305;47.950;6.572;2022-07-03T00:43:13;94657.41;;;14.47;68.07
67434;BME280;54305;47.950;6.572;2022-07-03T00:45:45;94660.47;;;14.36;68.70
67434;BME280;54305;47.950;6.572;2022-07-03T00:48:13;94648.69;;;14.32;68.42
67434;BME280;54305;47.950;6.572;2022-07-03T00:50:45;94649.88;;;14.52;67.38
67434;BME280;54305;47.950;6.572;2022-07-03T00:53:13;94645.41;;;14.52;66.93
67434;BME280;54305;47.950;6.572;2022-07-03T00:55:39;94642.06;;;14.44;68.38
67434;BME280;54305;47.950;6.572;2022-07-03T00:58:07;94647.59;;;14.49;68.36
67434;BME280;54305;47.950;6.572;2022-07-03T01:00:35;94650.22;;;14.49;66.53
67434;BME280;54305;47.950;6.572;2022-07-03T01:03:06;94646.06;;;14.32;70.34
67434;BME280;54305;47.950;6.572;2022-07-03T01:05:35;94647.44;;;14.28;70.06
67434;BME280;54305;47.950;6.572;2022-07-03T01:10:54;94648.22;;;14.51;67.79
67434;BME280;54305;47.950;6.572;2022-07-03T01:18:49;94634.63;;;14.84;65.59
67434;BME280;54305;47.950;6.572;2022-07-03T01:21:36;94636.88;;;14.73;66.64
67434;BME280;54305;47.950;6.572;2022-07-03T01:26:38;94639.72;;;14.49;68.42
67434;BME280;54305;47.950;6.572;2022-07-03T01:29:08;94642.97;;;14.51;68.39
67434;BME280;54305;47.950;6.572;2022-07-03T01:31:38;94652.16;;;14.47;68.86
67434;BME280;54305;47.950;6.572;2022-07-03T01:34:10;94648.03;;;14.38;69.13
67434;BME280;54305;47.950;6.572;2022-07-03T01:36:39;94647.66;;;14.41;68.96
67434;BME280;54305;47.950;6.572;2022-07-03T01:39:06;94637.88;;;14.35;69.10
67434;BME280;54305;47.950;6.572;2022-07-03T01:41:36;94650.22;;;14.49;69.30
67434;BME280;54305;47.950;6.572;2022-07-03T01:44:02;94638.44;;;14.45;69.02
67434;BME280;54305;47.950;6.572;2022-07-03T01:46:31;94641.53;;;14.48;69.76
67434;BME280;54305;47.950;6.572;2022-07-03T01:48:57;94649.09;;;14.43;71.88
67434;BME280;54305;47.950;6.572;2022-07-03T01:51:23;94636.84;;;14.21;72.10
67434;BME280;54305;47.950;6.572;2022-07-03T01:53:50;94642.22;;;13.97;72.91
67434;BME280;54305;47.950;6.572;2022-07-03T01:56:18;94636.47;;;14.02;72.55
67434;BME280;54305;47.950;6.572;2022-07-03T01:58:44;94643.22;;;13.96;72.74
67434;BME280;54305;47.950;6.572;2022-07-03T02:01:21;94638.44;;;14.00;72.53
67434;BME280;54305;47.950;6.572;2022-07-03T02:03:51;94632.97;;;14.09;72.29
67434;BME280;54305;47.950;6.572;2022-07-03T02:06:39;94635.06;;;14.14;71.58
67434;BME280;54305;47.950;6.572;2022-07-03T02:09:08;94631.59;;;13.99;72.01
67434;BME280;54305;47.950;6.572;2022-07-03T02:11:38;94629.59;;;14.01;72.11
67434;BME280;54305;47.950;6.572;2022-07-03T02:14:12;94627.59;;;14.03;72.67
67434;BME280;54305;47.950;6.572;2022-07-03T02:19:17;94626.63;;;14.04;72.81
67434;BME280;54305;47.950;6.572;2022-07-03T02:21:51;94629.59;;;14.01;72.95
67434;BME280;54305;47.950;6.572;2022-07-03T02:24:21;94632.50;;;14.06;73.40
67434;BME280;54305;47.950;6.572;2022-07-03T02:27:00;94622.06;;;13.98;73.73
67434;BME280;54305;47.950;6.572;2022-07-03T02:29:43;94623.78;;;13.91;73.76
67434;BME280;54305;47.950;6.572;2022-07-03T02:32:15;94628.31;;;13.97;73.77
67434;BME280;54305;47.950;6.572;2022-07-03T02:34:45;94622.16;;;13.90;73.59
67434;BME280;54305;47.950;6.572;2022-07-03T02:37:17;94641.44;;;13.89;74.27
67434;BME280;54305;47.950;6.572;2022-07-03T02:39:51;94635.53;;;13.95;74.81
67434;BME280;54305;47.950;6.572;2022-07-03T02:42:38;94638.53;;;13.84;75.06
67434;BME280;54305;47.950;6.572;2022-07-03T02:45:05;94636.22;;;13.89;74.96
67434;BME280;54305;47.950;6.572;2022-07-03T02:50:04;94646.75;;;13.81;75.32
67434;BME280;54305;47.950;6.572;2022-07-03T03:01:09;94652.84;;;13.73;76.44
67434;BME280;54305;47.950;6.572;2022-07-03T03:03:45;94648.50;;;13.58;75.86
67434;BME280;54305;47.950;6.572;2022-07-03T03:06:20;94648.25;;;13.45;75.53
67434;BME280;54305;47.950;6.572;2022-07-03T03:08:51;94660.97;;;13.56;77.45
67434;BME280;54305;47.950;6.572;2022-07-03T03:11:24;94654.69;;;13.65;76.57
67434;BME280;54305;47.950;6.572;2022-07-03T03:13:56;94659.56;;;13.68;76.94
67434;BME280;54305;47.950;6.572;2022-07-03T03:16:26;94666.44;;;13.69;75.85
67434;BME280;54305;47.950;6.572;2022-07-03T03:18:52;94657.72;;;13.76;75.53
67434;BME280;54305;47.950;6.572;2022-07-03T03:21:19;94669.91;;;13.61;75.37
67434;BME280;54305;47.950;6.572;2022-07-03T03:23:47;94668.81;;;13.56;75.63
67434;BME280;54305;47.950;6.572;2022-07-03T03:26:19;94664.91;;;13.52;76.24
67434;BME280;54305;47.950;6.572;2022-07-03T03:28:45;94660.34;;;13.46;76.67
67434;BME280;54305;47.950;6.572;2022-07-03T03:31:12;94674.06;;;13.48;76.15
67434;BME280;54305;47.950;6.572;2022-07-03T03:33:43;94666.25;;;13.40;75.57
67434;BME280;54305;47.950;6.572;2022-07-03T03:36:10;94674.41;;;13.45;76.12
67434;BME280;54305;47.950;6.572;2022-07-03T03:38:40;94682.94;;;13.39;75.59
67434;BME280;54305;47.950;6.572;2022-07-03T03:41:06;94685.88;;;13.36;75.93
67434;BME280;54305;47.950;6.572;2022-07-03T03:43:33;94683.25;;;13.36;76.49
67434;BME280;54305;47.950;6.572;2022-07-03T03:45:59;94684.53;;;13.48;77.19
67434;BME280;54305;47.950;6.572;2022-07-03T03:48:28;94686.78;;;13.59;77.42
67434;BME280;54305;47.950;6.572;2022-07-03T03:50:58;94688.22;;;13.61;76.70
67434;BME280;54305;47.950;6.572;2022-07-03T03:53:24;94691.31;;;13.65;76.60
67434;BME280;54305;47.950;6.572;2022-07-03T03:58:27;94694.91;;;13.72;77.68
67434;BME280;54305;47.950;6.572;2022-07-03T04:00:55;94687.31;;;13.85;77.54
67434;BME280;54305;47.950;6.572;2022-07-03T04:03:20;94682.06;;;13.85;76.59
67434;BME280;54305;47.950;6.572;2022-07-03T04:05:46;94682.06;;;13.85;76.77
67434;BME280;54305;47.950;6.572;2022-07-03T04:08:11;94685.00;;;13.90;76.49
67434;BME280;54305;47.950;6.572;2022-07-03T04:10:38;94688.25;;;13.92;76.88
67434;BME280;54305;47.950;6.572;2022-07-03T04:13:03;94692.19;;;13.88;76.84
67434;BME280;54305;47.950;6.572;2022-07-03T04:15:29;94687.31;;;13.85;76.79
67434;BME280;54305;47.950;6.572;2022-07-03T04:17:54;94677.47;;;13.87;78.90
67434;BME280;54305;47.950;6.572;2022-07-03T04:20:20;94680.34;;;14.00;79.24
67434;BME280;54305;47.950;6.572;2022-07-03T04:22:45;94678.94;;;14.12;76.81
67434;BME280;54305;47.950;6.572;2022-07-03T04:25:13;94677.50;;;14.09;77.24
67434;BME280;54305;47.950;6.572;2022-07-03T04:27:38;94675.63;;;14.18;75.88
67434;BME280;54305;47.950;6.572;2022-07-03T04:30:04;94686.94;;;14.18;75.83
67434;BME280;54305;47.950;6.572;2022-07-03T04:32:35;94677.59;;;14.24;76.80
67434;BME280;54305;47.950;6.572;2022-07-03T04:35:00;94683.03;;;14.37;79.19
67434;BME280;54305;47.950;6.572;2022-07-03T04:37:26;94688.47;;;14.58;78.90
67434;BME280;54305;47.950;6.572;2022-07-03T04:39:52;94685.13;;;14.64;79.45
67434;BME280;54305;47.950;6.572;2022-07-03T04:42:17;94685.81;;;14.80;78.80
67434;BME280;54305;47.950;6.572;2022-07-03T04:44:43;94679.88;;;15.01;76.79
67434;BME280;54305;47.950;6.572;2022-07-03T04:47:08;94676.63;;;15.28;77.58
67434;BME280;54305;47.950;6.572;2022-07-03T04:49:34;94677.28;;;15.59;77.10
67434;BME280;54305;47.950;6.572;2022-07-03T04:51:59;94677.75;;;15.98;74.96
67434;BME280;54305;47.950;6.572;2022-07-03T04:54:24;94682.50;;;16.65;74.50
67434;BME280;54305;47.950;6.572;2022-07-03T04:56:50;94682.03;;;17.38;68.79
67434;BME280;54305;47.950;6.572;2022-07-03T04:59:16;94666.75;;;18.08;64.98
67434;BME280;54305;47.950;6.572;2022-07-03T05:01:41;94668.56;;;18.87;63.58
67434;BME280;54305;47.950;6.572;2022-07-03T05:04:06;94679.88;;;18.48;63.62
67434;BME280;54305;47.950;6.572;2022-07-03T05:06:32;94687.38;;;18.45;67.04
67434;BME280;54305;47.950;6.572;2022-07-03T05:08:57;94683.06;;;18.31;66.06
67434;BME280;54305;47.950;6.572;2022-07-03T05:11:23;94677.66;;;18.65;65.12
67434;BME280;54305;47.950;6.572;2022-07-03T05:13:48;94684.78;;;18.58;65.58
67434;BME280;54305;47.950;6.572;2022-07-03T05:16:14;94680.31;;;19.36;62.80
67434;BME280;54305;47.950;6.572;2022-07-03T05:18:39;94679.69;;;19.41;62.57
67434;BME280;54305;47.950;6.572;2022-07-03T05:21:05;94686.41;;;19.50;63.59
67434;BME280;54305;47.950;6.572;2022-07-03T05:23:30;94688.44;;;19.09;63.88
67434;BME280;54305;47.950;6.572;2022-07-03T05:25:56;94692.50;;;19.18;62.22
67434;BME280;54305;47.950;6.572;2022-07-03T05:28:23;94689.63;;;19.58;61.31
67434;BME280;54305;47.950;6.572;2022-07-03T05:30:49;94687.53;;;20.68;60.06
67434;BME280;54305;47.950;6.572;2022-07-03T05:33:14;94685.09;;;21.22;57.40
67434;BME280;54305;47.950;6.572;2022-07-03T05:35:40;94681.47;;;21.59;56.63
67434;BME280;54305;47.950;6.572;2022-07-03T05:38:05;94684.34;;;22.30;54.91
67434;BME280;54305;47.950;6.572;2022-07-03T05:40:31;94683.72;;;23.16;51.58
67434;BME280;54305;47.950;6.572;2022-07-03T05:42:56;94677.63;;;23.96;49.74
67434;BME280;54305;47.950;6.572;2022-07-03T05:45:22;94670.56;;;24.97;46.61
67434;BME280;54305;47.950;6.572;2022-07-03T05:47:47;94673.47;;;25.12;47.07
67434;BME280;54305;47.950;6.572;2022-07-03T05:50:13;94673.81;;;25.49;46.61
67434;BME280;54305;47.950;6.572;2022-07-03T05:52:38;94664.41;;;25.96;44.20
67434;BME280;54305;47.950;6.572;2022-07-03T05:55:04;94673.47;;;25.95;44.66
67434;BME280;54305;47.950;6.572;2022-07-03T05:57:30;94673.13;;;25.75;46.13
67434;BME280;54305;47.950;6.572;2022-07-03T05:59:55;94680.78;;;26.04;45.65
67434;BME280;54305;47.950;6.572;2022-07-03T06:02:21;94677.16;;;25.77;45.84
67434;BME280;54305;47.950;6.572;2022-07-03T06:04:47;94679.78;;;27.01;44.08
67434;BME280;54305;47.950;6.572;2022-07-03T06:07:12;94678.25;;;27.10;42.49
67434;BME280;54305;47.950;6.572;2022-07-03T06:09:38;94682.31;;;28.22;40.52
67434;BME280;54305;47.950;6.572;2022-07-03T06:12:04;94678.38;;;27.20;42.36
67434;BME280;54305;47.950;6.572;2022-07-03T06:14:29;94679.44;;;27.87;40.22
67434;BME280;54305;47.950;6.572;2022-07-03T06:16:54;94669.63;;;27.61;38.36
67434;BME280;54305;47.950;6.572;2022-07-03T06:19:20;94676.56;;;28.55;36.78
67434;BME280;54305;47.950;6.572;2022-07-03T06:21:46;94665.47;;;29.48;33.80
67434;BME280;54305;47.950;6.572;2022-07-03T06:24:11;94664.84;;;28.91;32.28
67434;BME280;54305;47.950;6.572;2022-07-03T06:26:37;94672.44;;;29.39;34.63
67434;BME280;54305;47.950;6.572;2022-07-03T06:29:02;94661.41;;;29.86;30.89
67434;BME280;54305;47.950;6.572;2022-07-03T06:31:28;94661.94;;;29.98;32.63
67434;BME280;54305;47.950;6.572;2022-07-03T06:33:53;94664.56;;;30.91;31.44
67434;BME280;54305;47.950;6.572;2022-07-03T06:36:19;94666.81;;;29.96;30.86
67434;BME280;54305;47.950;6.572;2022-07-03T06:38:44;94662.16;;;30.26;31.32
67434;BME280;54305;47.950;6.572;2022-07-03T06:41:10;94656.88;;;29.81;30.96
67434;BME280;54305;47.950;6.572;2022-07-03T06:43:35;94671.28;;;30.25;31.68
67434;BME280;54305;47.950;6.572;2022-07-03T06:46:01;94661.16;;;29.82;30.18
67434;BME280;54305;47.950;6.572;2022-07-03T06:48:26;94658.50;;;29.67;33.02
67434;BME280;54305;47.950;6.572;2022-07-03T06:50:52;94655.81;;;29.12;33.35
67434;BME280;54305;47.950;6.572;2022-07-03T06:53:17;94665.19;;;29.80;32.25
67434;BME280;54305;47.950;6.572;2022-07-03T06:55:42;94663.25;;;30.10;30.74
67434;BME280;54305;47.950;6.572;2022-07-03T06:58:08;94663.88;;;29.07;31.86
67434;BME280;54305;47.950;6.572;2022-07-03T07:00:34;94663.28;;;30.00;30.24
67434;BME280;54305;47.950;6.572;2022-07-03T07:02:59;94674.06;;;29.85;31.21
67434;BME280;54305;47.950;6.572;2022-07-03T07:05:25;94667.63;;;29.41;31.63
67434;BME280;54305;47.950;6.572;2022-07-03T07:07:50;94656.91;;;29.16;31.90
67434;BME280;54305;47.950;6.572;2022-07-03T07:10:16;94665.63;;;28.05;34.58
67434;BME280;54305;47.950;6.572;2022-07-03T07:12:41;94661.78;;;27.86;34.02
67434;BME280;54305;47.950;6.572;2022-07-03T07:15:07;94655.03;;;27.42;34.32
67434;BME280;54305;47.950;6.572;2022-07-03T07:17:32;94650.81;;;26.67;35.75
67434;BME280;54305;47.950;6.572;2022-07-03T07:19:58;94660.09;;;29.08;32.13
67434;BME280;54305;47.950;6.572;2022-07-03T07:22:23;94660.03;;;28.88;33.96
67434;BME280;54305;47.950;6.572;2022-07-03T07:24:51;94652.44;;;27.94;32.40
67434;BME280;54305;47.950;6.572;2022-07-03T07:27:16;94657.41;;;27.12;34.15
67434;BME280;54305;47.950;6.572;2022-07-03T07:29:42;94666.28;;;28.32;34.55
67434;BME280;54305;47.950;6.572;2022-07-03T07:32:07;94661.97;;;27.12;35.91
67434;BME280;54305;47.950;6.572;2022-07-03T07:34:33;94658.66;;;27.68;34.97
67434;BME280;54305;47.950;6.572;2022-07-03T07:36:58;94660.91;;;28.32;34.24
67434;BME280;54305;47.950;6.572;2022-07-03T07:39:23;94654.84;;;27.22;35.60
67434;BME280;54305;47.950;6.572;2022-07-03T07:41:49;94648.59;;;28.31;32.83
67434;BME280;54305;47.950;6.572;2022-07-03T07:44:15;94660.53;;;27.62;35.54
67434;BME280;54305;47.950;6.572;2022-07-03T07:46:40;94665.97;;;26.35;36.23
67434;BME280;54305;47.950;6.572;2022-07-03T07:49:06;94655.59;;;27.49;38.19
67434;BME280;54305;47.950;6.572;2022-07-03T07:51:31;94659.47;;;27.68;35.29
67434;BME280;54305;47.950;6.572;2022-07-03T07:53:57;94653.84;;;27.65;37.23
67434;BME280;54305;47.950;6.572;2022-07-03T07:56:26;94653.78;;;27.18;36.17
67434;BME280;54305;47.950;6.572;2022-07-03T07:58:52;94650.19;;;27.39;36.38
67434;BME280;54305;47.950;6.572;2022-07-03T08:01:18;94657.44;;;27.80;36.34
67434;BME280;54305;47.950;6.572;2022-07-03T08:04:03;94662.50;;;27.40;35.63
67434;BME280;54305;47.950;6.572;2022-07-03T08:06:47;94652.47;;;27.57;32.91
67434;BME280;54305;47.950;6.572;2022-07-03T08:09:13;94663.84;;;28.97;33.99
67434;BME280;54305;47.950;6.572;2022-07-03T08:11:38;94656.25;;;28.03;34.97
67434;BME280;54305;47.950;6.572;2022-07-03T08:14:04;94667.59;;;28.30;36.00
67434;BME280;54305;47.950;6.572;2022-07-03T08:16:32;94672.69;;;28.26;34.47
67434;BME280;54305;47.950;6.572;2022-07-03T08:18:58;94662.78;;;29.23;34.99
67434;BME280;54305;47.950;6.572;2022-07-03T08:21:23;94658.50;;;29.07;33.61
67434;BME280;54305;47.950;6.572;2022-07-03T08:23:49;94671.88;;;27.79;35.27
67434;BME280;54305;47.950;6.572;2022-07-03T08:26:14;94659.25;;;27.07;35.42
67434;BME280;54305;47.950;6.572;2022-07-03T08:28:40;94667.22;;;28.06;35.09
67434;BME280;54305;47.950;6.572;2022-07-03T08:31:06;94660.63;;;29.05;35.68
67434;BME280;54305;47.950;6.572;2022-07-03T08:33:31;94669.06;;;27.59;34.69
67434;BME280;54305;47.950;6.572;2022-07-03T08:35:57;94665.56;;;26.69;36.35
67434;BME280;54305;47.950;6.572;2022-07-03T08:38:31;94660.09;;;27.12;38.07
67434;BME280;54305;47.950;6.572;2022-07-03T08:41:00;94654.28;;;27.88;35.93
67434;BME280;54305;47.950;6.572;2022-07-03T08:43:25;94671.38;;;27.82;37.72
67434;BME280;54305;47.950;6.572;2022-07-03T08:45:52;94665.41;;;27.39;36.30
67434;BME280;54305;47.950;6.572;2022-07-03T08:48:20;94660.78;;;28.02;35.18
67434;BME280;54305;47.950;6.572;2022-07-03T08:50:47;94661.53;;;27.56;36.54
67434;BME280;54305;47.950;6.572;2022-07-03T08:53:15;94661.53;;;27.56;39.26
67434;BME280;54305;47.950;6.572;2022-07-03T08:55:41;94664.44;;;28.38;35.40
67434;BME280;54305;47.950;6.572;2022-07-03T08:58:09;94648.22;;;30.14;32.61
67434;BME280;54305;47.950;6.572;2022-07-03T09:00:35;94654.66;;;28.78;36.30
67434;BME280;54305;47.950;6.572;2022-07-03T09:03:01;94657.88;;;28.90;36.12
67434;BME280;54305;47.950;6.572;2022-07-03T09:05:29;94645.59;;;29.39;33.67
67434;BME280;54305;47.950;6.572;2022-07-03T09:07:56;94649.38;;;29.38;33.39
67434;BME280;54305;47.950;6.572;2022-07-03T09:10:24;94652.94;;;28.42;36.26
67434;BME280;54305;47.950;6.572;2022-07-03T09:12:50;94656.22;;;28.59;37.06
67434;BME280;54305;47.950;6.572;2022-07-03T09:15:17;94657.63;;;28.87;34.94
67434;BME280;54305;47.950;6.572;2022-07-03T09:20:34;94662.97;;;28.10;37.22
67434;BME280;54305;47.950;6.572;2022-07-03T09:23:16;94658.97;;;28.94;36.31
67434;BME280;54305;47.950;6.572;2022-07-03T09:28:19;94658.16;;;30.04;32.24
67434;BME280;54305;47.950;6.572;2022-07-03T09:30:59;94657.41;;;29.73;33.19
67434;BME280;54305;47.950;6.572;2022-07-03T09:33:26;94664.03;;;28.66;34.47
67434;BME280;54305;47.950;6.572;2022-07-03T09:35:53;94646.69;;;29.43;32.38
67434;BME280;54305;47.950;6.572;2022-07-03T09:38:19;94648.41;;;30.38;32.04
67434;BME280;54305;47.950;6.572;2022-07-03T09:40:48;94650.41;;;29.82;33.48
67434;BME280;54305;47.950;6.572;2022-07-03T09:43:15;94659.06;;;29.64;33.07
67434;BME280;54305;47.950;6.572;2022-07-03T09:45:52;94652.50;;;28.80;35.58
67434;BME280;54305;47.950;6.572;2022-07-03T09:48:22;94660.03;;;30.18;31.52
67434;BME280;54305;47.950;6.572;2022-07-03T09:50:47;94654.72;;;29.93;32.66
67434;BME280;54305;47.950;6.572;2022-07-03T09:53:13;94659.22;;;28.78;32.33
67434;BME280;54305;47.950;6.572;2022-07-03T09:55:38;94663.31;;;29.15;31.29
67434;BME280;54305;47.950;6.572;2022-07-03T09:58:04;94643.34;;;28.61;30.84
67434;BME280;54305;47.950;6.572;2022-07-03T10:00:31;94648.69;;;28.51;29.88
67434;BME280;54305;47.950;6.572;2022-07-03T10:03:03;94646.13;;;27.73;33.96
67434;BME280;54305;47.950;6.572;2022-07-03T10:05:36;94645.88;;;29.73;34.32
67434;BME280;54305;47.950;6.572;2022-07-03T10:08:07;94642.84;;;30.14;32.24
67434;BME280;54305;47.950;6.572;2022-07-03T10:10:37;94651.91;;;30.33;37.11
67434;BME280;54305;47.950;6.572;2022-07-03T10:13:03;94642.38;;;29.47;30.97
67434;BME280;54305;47.950;6.572;2022-07-03T10:15:31;94651.50;;;29.86;32.54
67434;BME280;54305;47.950;6.572;2022-07-03T10:17:58;94652.03;;;29.73;35.33
67434;BME280;54305;47.950;6.572;2022-07-03T10:20:35;94640.69;;;28.66;35.88
67434;BME280;54305;47.950;6.572;2022-07-03T10:23:03;94642.13;;;29.04;36.75
67434;BME280;54305;47.950;6.572;2022-07-03T10:25:29;94638.50;;;28.48;33.13
67434;BME280;54305;47.950;6.572;2022-07-03T10:27:55;94642.97;;;29.64;30.37
67434;BME280;54305;47.950;6.572;2022-07-03T10:30:22;94633.28;;;28.98;30.62
67434;BME280;54305;47.950;6.572;2022-07-03T10:32:51;94639.72;;;29.42;32.10
67434;BME280;54305;47.950;6.572;2022-07-03T10:35:23;94637.53;;;28.94;33.49
67434;BME280;54305;47.950;6.572;2022-07-03T10:37:52;94642.84;;;28.74;33.95
67434;BME280;54305;47.950;6.572;2022-07-03T10:40:52;94638.91;;;29.12;33.88
67434;BME280;54305;47.950;6.572;2022-07-03T10:43:40;94641.81;;;29.90;33.07
67434;BME280;54305;47.950;6.572;2022-07-03T10:46:25;94634.34;;;29.62;28.81
67434;BME280;54305;47.950;6.572;2022-07-03T10:49:08;94629.94;;;30.06;31.58
67434;BME280;54305;47.950;6.572;2022-07-03T10:51:56;94645.06;;;29.47;32.28
67434;BME280;54305;47.950;6.572;2022-07-03T11:02:40;94650.47;;;29.62;32.88
67434;BME280;54305;47.950;6.572;2022-07-03T11:13:04;94635.41;;;29.76;31.42
67434;BME280;54305;47.950;6.572;2022-07-03T11:20:37;94629.25;;;29.16;30.68
67434;BME280;54305;47.950;6.572;2022-07-03T11:26:20;94630.06;;;29.11;34.21
67434;BME280;54305;47.950;6.572;2022-07-03T11:38:41;94619.06;;;29.43;33.74
67434;BME280;54305;47.950;6.572;2022-07-03T11:41:09;94613.41;;;29.19;33.04
67434;BME280;54305;47.950;6.572;2022-07-03T11:43:35;94610.69;;;29.54;33.99
67434;BME280;54305;47.950;6.572;2022-07-03T11:46:01;94608.28;;;29.73;35.92
67434;BME280;54305;47.950;6.572;2022-07-03T11:48:29;94602.53;;;30.14;33.02
67434;BME280;54305;47.950;6.572;2022-07-03T11:51:00;94609.06;;;29.83;34.18
67434;BME280;54305;47.950;6.572;2022-07-03T11:53:38;94606.94;;;29.75;34.56
67434;BME280;54305;47.950;6.572;2022-07-03T11:56:08;94609.91;;;29.54;33.12
67434;BME280;54305;47.950;6.572;2022-07-03T11:58:47;94609.22;;;30.27;33.06
67434;BME280;54305;47.950;6.572;2022-07-03T12:04:02;94609.91;;;29.54;33.89
67434;BME280;54305;47.950;6.572;2022-07-03T12:06:34;94598.28;;;29.98;34.08
67434;BME280;54305;47.950;6.572;2022-07-03T12:09:00;94606.88;;;29.95;35.93
67434;BME280;54305;47.950;6.572;2022-07-03T12:11:25;94598.09;;;29.50;32.77
67434;BME280;54305;47.950;6.572;2022-07-03T12:13:51;94601.06;;;29.33;34.70
67434;BME280;54305;47.950;6.572;2022-07-03T12:16:18;94601.06;;;29.38;35.80
67434;BME280;54305;47.950;6.572;2022-07-03T12:18:52;94603.69;;;29.88;34.97
67434;BME280;54305;47.950;6.572;2022-07-03T12:21:21;94598.25;;;30.67;32.64
67434;BME280;54305;47.950;6.572;2022-07-03T12:23:51;94597.41;;;30.23;30.93
67434;BME280;54305;47.950;6.572;2022-07-03T12:26:31;94591.97;;;29.04;34.61
67434;BME280;54305;47.950;6.572;2022-07-03T12:28:58;94589.53;;;29.08;34.77
67434;BME280;54305;47.950;6.572;2022-07-03T12:31:25;94592.78;;;29.05;34.72
67434;BME280;54305;47.950;6.572;2022-07-03T12:33:51;94591.94;;;29.59;35.14
67434;BME280;54305;47.950;6.572;2022-07-03T12:36:17;94590.25;;;29.88;34.81
67434;BME280;54305;47.950;6.572;2022-07-03T12:38:56;94588.69;;;30.89;34.25
67434;BME280;54305;47.950;6.572;2022-07-03T12:41:22;94583.88;;;29.64;33.70
67434;BME280;54305;47.950;6.572;2022-07-03T12:43:50;94592.50;;;29.26;34.81
67434;BME280;54305;47.950;6.572;2022-07-03T12:46:32;94581.69;;;29.76;35.62
67434;BME280;54305;47.950;6.572;2022-07-03T12:48:59;94574.75;;;29.65;35.09
67434;BME280;54305;47.950;6.572;2022-07-03T12:51:45;94575.81;;;29.74;35.39
67434;BME280;54305;47.950;6.572;2022-07-03T12:54:22;94579.06;;;29.01;35.35
67434;BME280;54305;47.950;6.572;2022-07-03T12:57:09;94580.13;;;29.50;34.93
67434;BME280;54305;47.950;6.572;2022-07-03T13:00:08;94583.56;;;29.71;34.01
67434;BME280;54305;47.950;6.572;2022-07-03T13:02:38;94580.50;;;30.07;34.70
67434;BME280;54305;47.950;6.572;2022-07-03T13:05:22;94573.41;;;29.68;35.32
67434;BME280;54305;47.950;6.572;2022-07-03T13:07:51;94568.25;;;29.76;34.91
67434;BME280;54305;47.950;6.572;2022-07-03T13:10:20;94572.88;;;29.61;35.33
67434;BME280;54305;47.950;6.572;2022-07-03T13:12:53;94562.94;;;29.61;34.02
67434;BME280;54305;47.950;6.572;2022-07-03T13:15:29;94567.78;;;29.34;36.34
67434;BME280;54305;47.950;6.572;2022-07-03T13:22:49;94573.69;;;29.41;36.68
67434;BME280;54305;47.950;6.572;2022-07-03T13:25:15;94573.13;;;28.64;36.08
67434;BME280;54305;47.950;6.572;2022-07-03T13:27:41;94575.72;;;27.73;36.77
67434;BME280;54305;47.950;6.572;2022-07-03T13:30:09;94564.16;;;27.62;38.47
67434;BME280;54305;47.950;6.572;2022-07-03T13:32:34;94569.56;;;27.72;37.61
67434;BME280;54305;47.950;6.572;2022-07-03T13:35:00;94569.28;;;28.35;38.84
67434;BME280;54305;47.950;6.572;2022-07-03T13:37:25;94567.78;;;28.64;37.93
67434;BME280;54305;47.950;6.572;2022-07-03T13:39:51;94566.19;;;28.78;38.23
67434;BME280;54305;47.950;6.572;2022-07-03T13:42:17;94566.22;;;29.08;36.29
67434;BME280;54305;47.950;6.572;2022-07-03T13:44:43;94555.72;;;28.87;35.28
67434;BME280;54305;47.950;6.572;2022-07-03T13:47:08;94566.41;;;28.52;35.61
67434;BME280;54305;47.950;6.572;2022-07-03T13:49:34;94563.72;;;28.52;36.67
67434;BME280;54305;47.950;6.572;2022-07-03T13:51:59;94569.09;;;27.39;36.49
67434;BME280;54305;47.950;6.572;2022-07-03T13:54:25;94574.34;;;26.92;38.16
67434;BME280;54305;47.950;6.572;2022-07-03T13:56:51;94566.78;;;26.79;38.17
67434;BME280;54305;47.950;6.572;2022-07-03T13:59:16;94565.19;;;26.83;38.07
67434;BME280;54305;47.950;6.572;2022-07-03T14:01:42;94562.56;;;26.35;37.04
67434;BME280;54305;47.950;6.572;2022-07-03T14:04:08;94564.84;;;27.06;37.74
67434;BME280;54305;47.950;6.572;2022-07-03T14:06:34;94565.88;;;27.00;37.60
67434;BME280;54305;47.950;6.572;2022-07-03T14:09:00;94555.75;;;27.07;37.81
67434;BME280;54305;47.950;6.572;2022-07-03T14:11:26;94556.16;;;27.21;40.47
67434;BME280;54305;47.950;6.572;2022-07-03T14:13:52;94549.78;;;27.27;36.50
67434;BME280;54305;47.950;6.572;2022-07-03T14:16:18;94559.91;;;27.66;37.15
67434;BME280;54305;47.950;6.572;2022-07-03T14:18:43;94551.31;;;28.31;35.78
67434;BME280;54305;47.950;6.572;2022-07-03T14:21:12;94562.19;;;27.94;36.13